Time;durP1;ratioP1;P1;durP2;ratioP2;P2;SDS_P1;SDS_P2;PMS_P1;PMS_P2;Temp;Humidity;BMP_temperature;BMP_pressure;BME280_temperature;BME280_humidity;BME280_pressure;Samples;Min_cycle;Max_cycle;Signal;HPM_P1;HPM_P2
2023/03/03 00:01:14;;;;;;;3.85;2.00;;;2.00;66.40;;;;;;4138220;28;20049;-84
2023/03/03 00:03:33;;;;;;;3.90;2.10;;;2.00;66.60;;;;;;4137545;28;20048;-84
2023/03/03 00:05:54;;;;;;;6.15;1.77;;;1.90;66.90;;;;;;4129768;28;20046;-83
2023/03/03 00:08:13;;;;;;;6.35;1.92;;;1.90;67.30;;;;;;4139087;28;20145;-84
2023/03/03 00:10:32;;;;;;;6.47;2.13;;;1.90;67.70;;;;;;4128485;28;20069;-84
2023/03/03 00:12:51;;;;;;;4.32;2.10;;;1.90;68.00;;;;;;4126224;28;20044;-84
2023/03/03 00:15:14;;;;;;;4.20;2.05;;;1.80;68.30;;;;;;4137731;28;20546;-84
2023/03/03 00:17:33;;;;;;;5.00;2.00;;;1.80;68.50;;;;;;4128166;28;20479;-84
2023/03/03 00:19:53;;;;;;;6.68;1.90;;;1.80;68.60;;;;;;4138127;28;20161;-83
2023/03/03 00:22:27;;;;;;;5.38;2.22;;;1.80;68.80;;;;;;4122888;28;20168;-84
2023/03/03 00:24:47;;;;;;;5.88;2.25;;;1.80;69.00;;;;;;4134248;28;20099;-84
2023/03/03 00:27:33;;;;;;;4.22;2.15;;;1.70;69.00;;;;;;4139061;28;20049;-84
2023/03/03 00:29:54;;;;;;;5.78;2.10;;;1.80;69.20;;;;;;4134847;28;20077;-84
2023/03/03 00:32:35;;;;;;;7.88;2.40;;;1.70;69.20;;;;;;4139828;28;20053;-84
2023/03/03 00:34:59;;;;;;;7.93;2.00;;;1.70;69.40;;;;;;4136761;28;20849;-84
2023/03/03 00:37:33;;;;;;;4.70;2.17;;;1.70;69.60;;;;;;4142658;28;20049;-84
2023/03/03 00:39:53;;;;;;;;;;;1.70;69.80;;;;;;4142720;28;20534;-85
2023/03/03 00:42:17;;;;;;;11.95;2.03;;;1.70;70.20;;;;;;4139216;28;19916;-84
2023/03/03 00:44:48;;;;;;;6.07;2.28;;;1.60;69.60;;;;;;4128446;28;20149;-84
2023/03/03 00:47:31;;;;;;;6.07;2.30;;;1.60;69.80;;;;;;4141770;28;20103;-84
2023/03/03 00:49:50;;;;;;;6.60;2.30;;;1.60;70.00;;;;;;4128240;28;20037;-84
2023/03/03 00:52:16;;;;;;;4.00;1.98;;;1.60;70.10;;;;;;4139891;28;20091;-84
2023/03/03 00:54:35;;;;;;;9.63;2.17;;;1.60;70.30;;;;;;4128080;28;20068;-86
2023/03/03 00:56:54;;;;;;;3.65;2.00;;;1.50;70.30;;;;;;4146947;28;20084;-84
2023/03/03 00:59:14;;;;;;;8.18;2.05;;;1.50;70.30;;;;;;4136984;28;20084;-84
2023/03/03 01:01:32;;;;;;;6.28;1.80;;;1.50;70.40;;;;;;4119928;28;20061;-84
2023/03/03 01:03:52;;;;;;;6.55;2.10;;;1.40;70.30;;;;;;4130652;28;20073;-84
2023/03/03 01:06:11;;;;;;;4.88;1.95;;;1.40;70.40;;;;;;4143495;28;20041;-84
2023/03/03 01:08:31;;;;;;;6.32;1.63;;;1.40;70.50;;;;;;4139448;28;20047;-84
2023/03/03 01:11:02;;;;;;;3.10;1.70;;;1.40;70.60;;;;;;4143751;28;20072;-84
2023/03/03 01:13:28;;;;;;;5.88;2.15;;;1.40;70.60;;;;;;4136432;28;20455;-83
2023/03/03 01:15:48;;;;;;;3.53;1.58;;;1.30;70.60;;;;;;4131507;28;20081;-84
2023/03/03 01:18:09;;;;;;;7.35;1.95;;;1.30;70.60;;;;;;4144440;28;20287;-84
2023/03/03 01:20:28;;;;;;;3.92;1.80;;;1.30;70.60;;;;;;4139023;28;20146;-84
2023/03/03 01:22:47;;;;;;;4.65;1.77;;;1.20;70.50;;;;;;4133666;28;20482;-84
2023/03/03 01:25:07;;;;;;;4.13;1.85;;;1.20;70.50;;;;;;4138626;28;20426;-83
2023/03/03 01:27:27;;;;;;;5.38;1.88;;;1.20;70.40;;;;;;4142052;28;20574;-83
2023/03/03 01:29:46;;;;;;;5.18;2.00;;;1.20;70.60;;;;;;4143511;28;20041;-84
2023/03/03 01:32:05;;;;;;;5.60;1.80;;;1.10;70.80;;;;;;4127275;28;20049;-83
2023/03/03 01:34:24;;;;;;;5.20;2.10;;;1.10;70.90;;;;;;4140828;28;20073;-83
2023/03/03 01:36:44;;;;;;;7.47;2.17;;;1.10;71.20;;;;;;4141349;28;20073;-84
2023/03/03 01:39:03;;;;;;;9.57;2.05;;;1.10;71.40;;;;;;4138969;28;20077;-84
2023/03/03 01:41:25;;;;;;;8.52;2.10;;;1.10;71.70;;;;;;4127083;28;20045;-84
2023/03/03 01:43:47;;;;;;;4.35;1.52;;;1.10;71.10;;;;;;4134467;28;20446;-84
2023/03/03 01:46:06;;;;;;;5.47;2.10;;;1.00;71.90;;;;;;4123277;28;20134;-84
2023/03/03 01:48:35;;;;;;;3.53;1.60;;;1.00;72.00;;;;;;4144445;28;20049;-84
2023/03/03 01:51:11;;;;;;;4.88;1.60;;;1.00;72.10;;;;;;4144406;28;20033;-84
2023/03/03 01:53:42;;;;;;;5.93;1.73;;;1.00;72.30;;;;;;4139281;28;20033;-84
2023/03/03 01:56:04;;;;;;;8.00;1.55;;;1.00;72.40;;;;;;4126500;28;20108;-84
2023/03/03 01:58:53;;;;;;;3.88;1.63;;;1.00;72.40;;;;;;4138892;28;20041;-84
2023/03/03 02:01:16;;;;;;;4.95;1.70;;;1.00;72.50;;;;;;4137884;28;20081;-86
2023/03/03 02:03:35;;;;;;;5.07;1.40;;;1.00;72.50;;;;;;4122609;28;20100;-83
2023/03/03 02:05:59;;;;;;;5.70;1.30;;;0.90;72.50;;;;;;4140096;28;20041;-84
2023/03/03 02:08:25;;;;;;;4.88;1.63;;;0.90;72.40;;;;;;4139349;28;20047;-84
2023/03/03 02:10:45;;;;;;;7.60;1.60;;;0.90;72.40;;;;;;4128339;28;20303;-86
2023/03/03 02:13:04;;;;;;;8.85;2.08;;;0.90;72.50;;;;;;4137063;28;20041;-83
2023/03/03 02:15:36;;;;;;;5.22;1.50;;;0.80;72.50;;;;;;4120887;28;20077;-84
2023/03/03 02:18:04;;;;;;;8.65;1.75;;;0.80;72.60;;;;;;4140566;28;20035;-83
2023/03/03 02:20:50;;;;;;;5.82;1.60;;;0.80;72.80;;;;;;4127151;28;20073;-84
2023/03/03 02:23:26;;;;;;;4.35;1.65;;;0.80;72.90;;;;;;4141134;28;20036;-84
2023/03/03 02:26:21;;;;;;;3.13;1.60;;;0.80;72.80;;;;;;4131859;28;20037;-84
2023/03/03 02:28:41;;;;;;;8.52;1.80;;;0.80;72.70;;;;;;4142063;28;20092;-84
2023/03/03 02:31:01;;;;;;;8.73;2.03;;;0.80;72.70;;;;;;4141754;28;20356;-84
2023/03/03 02:33:21;;;;;;;2.45;1.63;;;0.80;73.00;;;;;;4140832;28;20432;-84
2023/03/03 02:35:41;;;;;;;6.00;1.98;;;0.70;73.10;;;;;;4140316;28;20084;-84
2023/03/03 02:38:16;;;;;;;3.50;1.90;;;0.70;73.40;;;;;;4127253;28;20033;-83
2023/03/03 02:40:38;;;;;;;27.52;2.75;;;0.70;73.50;;;;;;4137843;28;20033;-84
2023/03/03 02:42:59;;;;;;;12.80;2.65;;;0.70;73.70;;;;;;4131045;28;20100;-83
2023/03/03 02:45:18;;;;;;;13.43;2.88;;;0.70;74.00;;;;;;4125499;28;20504;-84
2023/03/03 02:47:37;;;;;;;39.08;3.92;;;0.70;74.20;;;;;;4128947;28;20045;-83
2023/03/03 02:49:56;;;;;;;68.88;4.28;;;0.80;74.50;;;;;;4141331;28;20036;-84
2023/03/03 02:52:17;;;;;;;60.10;4.00;;;0.80;74.90;;;;;;4143450;28;20076;-84
2023/03/03 02:54:37;;;;;;;37.53;3.05;;;0.80;75.00;;;;;;4126164;28;20049;-84
2023/03/03 02:56:57;;;;;;;12.00;2.42;;;0.90;75.30;;;;;;4143912;28;20238;-84
2023/03/03 02:59:17;;;;;;;40.88;2.60;;;0.90;75.50;;;;;;4122257;28;20041;-84
2023/03/03 03:01:36;;;;;;;49.65;2.25;;;1.00;75.50;;;;;;4141849;28;20065;-84
2023/03/03 03:03:55;;;;;;;14.88;2.00;;;1.00;75.60;;;;;;4128876;28;20038;-83
2023/03/03 03:06:14;;;;;;;19.05;2.10;;;1.00;75.60;;;;;;4131019;28;20044;-84
2023/03/03 03:08:33;;;;;;;34.05;2.25;;;1.10;75.60;;;;;;4139531;28;20046;-83
2023/03/03 03:11:06;;;;;;;20.27;1.75;;;1.10;75.70;;;;;;4144403;28;20029;-84
2023/03/03 03:13:26;;;;;;;24.23;2.03;;;1.10;75.70;;;;;;4131781;28;20041;-84
2023/03/03 03:15:46;;;;;;;45.10;2.40;;;1.10;75.80;;;;;;4130237;28;20105;-84
2023/03/03 03:18:06;;;;;;;33.00;2.42;;;1.20;75.90;;;;;;4148065;28;20036;-84
2023/03/03 03:20:26;;;;;;;35.08;2.20;;;1.20;76.20;;;;;;4144836;28;20056;-83
2023/03/03 03:22:45;;;;;;;50.88;2.80;;;1.20;76.30;;;;;;4147424;28;20049;-84
2023/03/03 03:25:04;;;;;;;31.55;2.20;;;1.20;76.40;;;;;;4130436;28;20635;-85
2023/03/03 03:27:24;;;;;;;35.78;2.63;;;1.30;76.50;;;;;;4146041;28;20052;-84
2023/03/03 03:29:43;;;;;;;15.27;1.60;;;1.30;76.60;;;;;;4146356;28;20095;-84
2023/03/03 03:32:02;;;;;;;21.13;2.10;;;1.30;76.70;;;;;;4145736;28;20031;-84
2023/03/03 03:34:21;;;;;;;30.13;2.17;;;1.30;76.80;;;;;;4144698;28;20097;-84
2023/03/03 03:36:41;;;;;;;11.13;1.83;;;1.30;76.90;;;;;;4146429;28;20088;-83
2023/03/03 03:39:01;;;;;;;14.00;1.60;;;1.40;77.00;;;;;;4142049;28;20033;-83
2023/03/03 03:41:20;;;;;;;17.92;1.90;;;1.40;77.00;;;;;;4144472;28;20052;-84
2023/03/03 03:43:40;;;;;;;35.38;2.60;;;1.40;77.10;;;;;;4146757;28;20629;-84
2023/03/03 03:45:59;;;;;;;10.73;1.90;;;1.40;77.10;;;;;;4143997;28;20048;-84
2023/03/03 03:48:18;;;;;;;28.00;2.40;;;1.40;77.10;;;;;;4131425;28;20070;-84
2023/03/03 03:50:38;;;;;;;36.95;2.70;;;1.40;77.10;;;;;;4138357;28;20057;-84
2023/03/03 03:52:58;;;;;;;31.00;2.42;;;1.50;77.20;;;;;;4143811;28;20048;-84
2023/03/03 03:55:17;;;;;;;110.38;3.50;;;1.50;77.30;;;;;;4127322;28;20081;-84
2023/03/03 03:57:36;;;;;;;115.90;3.72;;;1.50;77.40;;;;;;4139914;28;20049;-85
2023/03/03 03:59:55;;;;;;;148.68;4.32;;;1.50;77.40;;;;;;4140703;28;20052;-83
2023/03/03 04:02:14;;;;;;;98.95;3.95;;;1.50;77.50;;;;;;4123167;28;20052;-84
2023/03/03 04:04:33;;;;;;;130.40;4.07;;;1.50;77.60;;;;;;4129415;28;20042;-83
2023/03/03 04:06:52;;;;;;;145.90;4.22;;;1.50;77.60;;;;;;4138633;28;20093;-83
2023/03/03 04:09:11;;;;;;;81.10;3.42;;;1.60;77.70;;;;;;4132022;28;20125;-84
2023/03/03 04:11:31;;;;;;;185.57;4.95;;;1.50;77.60;;;;;;4141055;28;20040;-84
2023/03/03 04:13:50;;;;;;;80.75;2.85;;;1.60;77.80;;;;;;4140954;28;20102;-84
2023/03/03 04:16:09;;;;;;;78.05;2.88;;;1.60;77.80;;;;;;4140965;28;20044;-84
2023/03/03 04:18:28;;;;;;;64.47;2.90;;;1.60;77.80;;;;;;4126776;28;20404;-84
2023/03/03 04:20:48;;;;;;;114.65;3.50;;;1.60;77.80;;;;;;4141582;28;20045;-84
2023/03/03 04:23:07;;;;;;;75.47;2.50;;;1.50;77.80;;;;;;4155313;28;20054;-84
2023/03/03 04:25:27;;;;;;;57.25;2.33;;;1.60;77.90;;;;;;4157098;28;20057;-85
2023/03/03 04:27:46;;;;;;;81.80;2.70;;;1.60;78.00;;;;;;4127755;28;20592;-83
2023/03/03 04:30:06;;;;;;;53.63;2.33;;;1.60;78.00;;;;;;4134824;28;20181;-83
2023/03/03 04:32:26;;;;;;;85.78;3.00;;;1.60;77.80;;;;;;4142873;28;20044;-85
2023/03/03 04:34:45;;;;;;;115.07;3.70;;;1.60;77.80;;;;;;4138593;28;20110;-84
2023/03/03 04:37:04;;;;;;;100.13;4.32;;;1.60;77.80;;;;;;4138434;28;20080;-83
2023/03/03 04:39:23;;;;;;;55.05;3.00;;;1.60;77.80;;;;;;4130393;28;20056;-83
2023/03/03 04:41:43;;;;;;;78.90;2.40;;;1.60;77.80;;;;;;4140493;28;20085;-84
2023/03/03 04:44:02;;;;;;;61.05;2.20;;;1.60;77.70;;;;;;4137802;28;20117;-84
2023/03/03 04:46:21;;;;;;;56.30;2.05;;;1.60;77.70;;;;;;4134888;28;20566;-84
2023/03/03 04:48:40;;;;;;;55.17;2.25;;;1.60;77.60;;;;;;4129290;28;20046;-84
2023/03/03 04:50:59;;;;;;;73.85;2.50;;;1.60;77.60;;;;;;4135563;28;20726;-84
2023/03/03 04:53:18;;;;;;;85.90;2.53;;;1.60;77.60;;;;;;4133541;28;20041;-84
2023/03/03 04:55:37;;;;;;;41.17;1.73;;;1.60;77.50;;;;;;4135568;28;20156;-84
2023/03/03 04:57:57;;;;;;;85.63;2.78;;;1.60;77.50;;;;;;4141245;28;20122;-84
2023/03/03 05:00:16;;;;;;;72.75;2.13;;;1.50;77.40;;;;;;4136876;28;20040;-84
2023/03/03 05:02:36;;;;;;;56.20;2.22;;;1.50;77.30;;;;;;4126547;28;20436;-85
2023/03/03 05:04:55;;;;;;;82.85;2.20;;;1.50;77.40;;;;;;4124702;28;20162;-84
2023/03/03 05:07:14;;;;;;;73.72;1.85;;;1.50;77.30;;;;;;4130354;28;20080;-85
2023/03/03 05:09:33;;;;;;;40.13;1.83;;;1.40;77.10;;;;;;4139485;28;20056;-84
2023/03/03 05:11:53;;;;;;;58.33;1.73;;;1.40;77.00;;;;;;4138606;28;20049;-84
2023/03/03 05:14:12;;;;;;;80.55;1.90;;;1.40;77.00;;;;;;4123432;28;20092;-84
2023/03/03 05:16:32;;;;;;;67.82;2.25;;;1.40;76.90;;;;;;4138042;28;20079;-84
2023/03/03 05:18:51;;;;;;;71.57;2.25;;;1.30;76.90;;;;;;4128030;28;20078;-83
2023/03/03 05:21:11;;;;;;;101.03;2.33;;;1.30;76.80;;;;;;4135278;28;20048;-83
2023/03/03 05:23:30;;;;;;;73.40;1.92;;;1.30;76.90;;;;;;4128678;28;20585;-83
2023/03/03 05:25:50;;;;;;;61.20;2.15;;;1.30;77.00;;;;;;4136165;28;21541;-83
2023/03/03 05:28:10;;;;;;;51.60;2.10;;;1.30;77.10;;;;;;4137982;28;20077;-85
2023/03/03 05:30:29;;;;;;;26.55;1.73;;;1.20;77.20;;;;;;4133550;28;20044;-83
2023/03/03 05:32:48;;;;;;;31.02;1.70;;;1.30;77.50;;;;;;4132526;28;20072;-83
2023/03/03 05:35:07;;;;;;;96.10;2.80;;;1.20;77.60;;;;;;4137027;28;20046;-82
2023/03/03 05:37:27;;;;;;;19.60;1.50;;;1.20;77.70;;;;;;4138254;28;20049;-83
2023/03/03 05:39:46;;;;;;;28.50;2.25;;;1.20;77.90;;;;;;4131244;28;20042;-84
2023/03/03 05:42:05;;;;;;;30.30;2.05;;;1.20;78.00;;;;;;4124357;28;20142;-83
2023/03/03 05:44:25;;;;;;;43.47;2.10;;;1.20;78.10;;;;;;4125879;28;20089;-83
2023/03/03 05:46:44;;;;;;;66.35;2.72;;;1.20;78.20;;;;;;4136811;28;20088;-83
2023/03/03 05:49:03;;;;;;;26.02;3.05;;;1.20;78.20;;;;;;4124269;28;20049;-83
2023/03/03 05:51:22;;;;;;;20.50;2.53;;;1.30;78.30;;;;;;4174528;23;20053;-84
2023/03/03 05:53:41;;;;;;;68.15;5.35;;;1.40;78.50;;;;;;4136573;28;20072;-84
2023/03/03 05:56:01;;;;;;;18.98;3.55;;;1.20;78.30;;;;;;4141355;28;20040;-84
2023/03/03 05:58:20;;;;;;;26.00;15.38;;;1.30;78.50;;;;;;4135049;28;20103;-83
2023/03/03 06:00:40;;;;;;;22.17;9.30;;;1.30;78.50;;;;;;4132449;28;20480;-83
2023/03/03 06:03:00;;;;;;;52.00;5.88;;;1.30;78.60;;;;;;4143735;28;20561;-83
2023/03/03 06:05:19;;;;;;;26.50;5.47;;;1.30;78.50;;;;;;4130986;28;20103;-83
2023/03/03 06:07:39;;;;;;;35.97;4.38;;;1.40;78.70;;;;;;4129493;28;20042;-83
2023/03/03 06:09:58;;;;;;;14.75;3.20;;;1.40;78.70;;;;;;4137966;28;20096;-83
2023/03/03 06:12:17;;;;;;;31.98;3.88;;;1.40;78.80;;;;;;4135058;28;20044;-83
2023/03/03 06:14:36;;;;;;;22.13;2.75;;;1.40;78.70;;;;;;4133661;28;20041;-82
2023/03/03 06:16:56;;;;;;;33.85;2.80;;;1.50;78.80;;;;;;4139602;28;20068;-85
2023/03/03 06:19:16;;;;;;;15.75;2.63;;;1.40;78.80;;;;;;4142265;28;20102;-84
2023/03/03 06:21:35;;;;;;;20.35;2.58;;;1.50;78.80;;;;;;4139341;28;20100;-83
2023/03/03 06:23:54;;;;;;;7.43;2.63;;;1.50;78.70;;;;;;4128564;28;20080;-83
2023/03/03 06:26:13;;;;;;;7.53;2.80;;;1.50;79.50;;;;;;4125373;28;20041;-84
2023/03/03 06:28:32;;;;;;;6.10;2.90;;;1.50;78.70;;;;;;4143518;28;20049;-83
2023/03/03 06:30:55;;;;;;;8.32;3.33;;;1.60;78.80;;;;;;4143691;28;20064;-83
2023/03/03 06:33:14;;;;;;;8.13;3.30;;;1.60;78.80;;;;;;4143882;28;20060;-84
2023/03/03 06:35:33;;;;;;;6.50;3.05;;;1.60;78.80;;;;;;4128177;28;20033;-83
2023/03/03 06:37:52;;;;;;;11.25;3.85;;;1.60;78.80;;;;;;4141483;28;20073;-84
2023/03/03 06:40:12;;;;;;;7.03;3.38;;;1.60;79.00;;;;;;4121352;28;20040;-84
2023/03/03 06:42:31;;;;;;;8.07;3.95;;;1.60;78.90;;;;;;4130119;28;20677;-83
2023/03/03 06:44:50;;;;;;;6.47;3.33;;;1.60;78.90;;;;;;4143456;28;20113;-85
2023/03/03 06:47:09;;;;;;;5.82;3.30;;;1.60;78.90;;;;;;4139553;28;20111;-84
2023/03/03 06:49:28;;;;;;;6.13;3.00;;;1.70;78.90;;;;;;4128082;28;20162;-84
2023/03/03 06:51:47;;;;;;;8.65;3.65;;;1.70;79.00;;;;;;4136480;28;20052;-84
2023/03/03 06:54:15;;;;;;;6.63;3.47;;;1.70;78.90;;;;;;4127546;28;20058;-83
2023/03/03 06:56:37;;;;;;;8.05;3.78;;;1.70;79.00;;;;;;4143140;28;20033;-83
2023/03/03 06:58:59;;;;;;;9.00;3.33;;;1.80;79.00;;;;;;4129474;28;20105;-83
2023/03/03 07:01:18;;;;;;;11.35;3.55;;;1.80;79.30;;;;;;4144317;28;20037;-84
2023/03/03 07:03:38;;;;;;;45.63;4.88;;;1.80;79.20;;;;;;4133297;28;20073;-83
2023/03/03 07:05:57;;;;;;;7.55;3.50;;;1.90;79.30;;;;;;4149280;28;20076;-83
2023/03/03 07:08:20;;;;;;;12.93;3.60;;;1.90;79.40;;;;;;4145392;28;20535;-83
2023/03/03 07:10:40;;;;;;;9.05;3.67;;;1.90;79.30;;;;;;4149167;28;20052;-82
2023/03/03 07:13:14;;;;;;;6.43;3.55;;;1.90;79.40;;;;;;4151961;28;20032;-84
2023/03/03 07:15:34;;;;;;;7.72;3.30;;;2.00;79.60;;;;;;4139848;28;20041;-82
2023/03/03 07:17:58;;;;;;;7.88;3.38;;;2.00;79.60;;;;;;4140573;28;20053;-83
2023/03/03 07:20:19;;;;;;;11.77;3.70;;;2.10;79.50;;;;;;4128355;28;20041;-83
2023/03/03 07:22:38;;;;;;;8.45;3.80;;;2.10;79.60;;;;;;4109755;28;20424;-84
2023/03/03 07:25:00;;;;;;;12.32;4.80;;;2.10;79.50;;;;;;4119271;28;20129;-84
2023/03/03 07:27:27;;;;;;;15.02;4.38;;;2.20;79.50;;;;;;4137753;28;20121;-83
2023/03/03 07:29:47;;;;;;;26.10;10.77;;;2.20;80.20;;;;;;4122044;28;20052;-83
2023/03/03 07:32:20;;;;;;;45.72;16.55;;;2.20;79.60;;;;;;4136307;28;20044;-83
2023/03/03 07:34:44;;;;;;;46.53;20.35;;;2.30;79.70;;;;;;4143077;28;21156;-83
2023/03/03 07:37:17;;;;;;;30.88;14.20;;;2.30;79.60;;;;;;4145492;28;20718;-83
2023/03/03 07:39:44;;;;;;;23.60;11.00;;;2.40;79.70;;;;;;4130398;28;20089;-84
2023/03/03 07:42:26;;;;;;;16.73;6.30;;;2.40;79.60;;;;;;4128398;28;20045;-83
2023/03/03 07:44:47;;;;;;;9.50;3.95;;;2.40;79.80;;;;;;4142918;28;20107;-83
2023/03/03 07:47:29;;;;;;;13.88;3.45;;;2.50;79.80;;;;;;4131380;28;20049;-83
2023/03/03 07:49:49;;;;;;;14.45;2.72;;;2.50;79.80;;;;;;4146060;28;20053;-83
2023/03/03 07:52:34;;;;;;;11.38;2.83;;;2.50;79.80;;;;;;4142916;28;20114;-83
2023/03/03 07:54:56;;;;;;;14.35;3.10;;;2.60;80.00;;;;;;4134883;28;20045;-83
2023/03/03 07:57:45;;;;;;;8.48;2.47;;;2.70;80.00;;;;;;4144554;28;20039;-84
2023/03/03 08:00:13;;;;;;;4.95;2.05;;;2.70;80.20;;;;;;4069828;29;20102;-84
2023/03/03 08:02:43;;;;;;;11.13;2.05;;;2.70;79.90;;;;;;4065553;29;20063;-84
2023/03/03 08:05:36;;;;;;;13.73;2.45;;;2.80;80.00;;;;;;4064858;29;20063;-84
2023/03/03 08:08:08;;;;;;;8.20;2.17;;;2.90;80.10;;;;;;4065012;29;20068;-84
2023/03/03 08:10:39;;;;;;;7.47;2.35;;;2.90;80.10;;;;;;4064796;29;20047;-84
2023/03/03 08:13:01;;;;;;;8.48;2.08;;;2.90;80.10;;;;;;4073013;29;20043;-84
2023/03/03 08:15:24;;;;;;;8.52;2.28;;;3.00;80.00;;;;;;4062489;29;20047;-84
2023/03/03 08:17:44;;;;;;;7.45;2.10;;;3.00;80.00;;;;;;4051614;29;20043;-84
2023/03/03 08:20:43;;;;;;;15.55;2.60;;;3.10;80.20;;;;;;4049795;29;20151;-84
2023/03/03 08:23:02;;;;;;;14.98;2.67;;;3.10;80.30;;;;;;4064328;29;20523;-84
2023/03/03 08:25:22;;;;;;;12.05;2.10;;;3.20;80.30;;;;;;4065021;29;20058;-85
2023/03/03 08:27:41;;;;;;;13.07;2.60;;;3.20;80.30;;;;;;4051844;29;20068;-85
2023/03/03 08:30:00;;;;;;;11.85;2.30;;;3.30;80.50;;;;;;4062784;29;20066;-84
2023/03/03 08:32:21;;;;;;;15.07;2.65;;;3.40;80.40;;;;;;4050523;29;20430;-85
2023/03/03 08:34:41;;;;;;;15.93;2.00;;;3.40;80.30;;;;;;4084386;29;20046;-85
2023/03/03 08:37:00;;;;;;;12.90;2.25;;;3.60;80.40;;;;;;4133473;28;20037;-84
2023/03/03 08:39:19;;;;;;;11.60;2.30;;;3.50;80.40;;;;;;4140204;28;20312;-84
2023/03/03 08:41:42;;;;;;;19.27;2.35;;;3.60;80.30;;;;;;4139207;28;20188;-84
2023/03/03 08:44:01;;;;;;;13.23;1.90;;;3.60;80.20;;;;;;4142131;28;20391;-84
2023/03/03 08:46:20;;;;;;;12.80;2.20;;;3.70;80.20;;;;;;4140472;28;20404;-84
2023/03/03 08:48:39;;;;;;;13.45;1.85;;;3.80;80.10;;;;;;4139991;28;20045;-84
2023/03/03 08:50:58;;;;;;;15.82;1.70;;;3.80;80.00;;;;;;4139388;28;20105;-84
2023/03/03 08:53:19;;;;;;;14.32;1.58;;;3.80;79.80;;;;;;4143213;28;20048;-84
2023/03/03 08:55:39;;;;;;;13.27;1.83;;;3.90;79.80;;;;;;4137948;28;20495;-83
2023/03/03 08:57:58;;;;;;;11.60;1.77;;;4.00;79.90;;;;;;4141550;28;20053;-84
2023/03/03 09:00:20;;;;;;;13.18;1.65;;;4.00;79.80;;;;;;4134579;28;20125;-83
2023/03/03 09:02:39;;;;;;;20.50;2.20;;;4.00;80.40;;;;;;4141196;28;20080;-84
2023/03/03 09:04:58;;;;;;;16.95;1.90;;;4.20;79.40;;;;;;4135739;28;20118;-87
2023/03/03 09:07:18;;;;;;;19.63;1.90;;;4.20;79.40;;;;;;4122556;28;20110;-85
2023/03/03 09:09:38;;;;;;;14.27;1.70;;;4.20;79.30;;;;;;4132840;28;20029;-84
2023/03/03 09:12:00;;;;;;;10.35;1.58;;;4.20;79.10;;;;;;4121322;28;20033;-84
2023/03/03 09:14:20;;;;;;;17.23;2.28;;;4.30;79.10;;;;;;4128563;28;20558;-86
2023/03/03 09:16:44;;;;;;;16.48;1.80;;;4.30;78.90;;;;;;4138103;28;20041;-84
2023/03/03 09:19:28;;;;;;;17.05;2.00;;;4.30;78.90;;;;;;4136727;28;20044;-84
2023/03/03 09:21:47;;;;;;;11.93;1.80;;;4.40;79.10;;;;;;4126795;28;20037;-84
2023/03/03 09:24:24;;;;;;;21.25;2.50;;;4.50;78.70;;;;;;4125201;28;20112;-83
2023/03/03 09:26:47;;;;;;;22.95;2.22;;;4.50;78.50;;;;;;4135481;28;20129;-85
2023/03/03 09:29:14;;;;;;;18.50;2.47;;;4.50;77.80;;;;;;4125549;28;20037;-85
2023/03/03 09:31:39;;;;;;;13.90;1.98;;;4.60;78.20;;;;;;4138546;28;20064;-84
2023/03/03 09:33:59;;;;;;;13.65;1.70;;;4.60;78.00;;;;;;4137411;28;20112;-84
2023/03/03 09:36:29;;;;;;;22.70;3.15;;;4.70;78.10;;;;;;4124766;28;20361;-85
2023/03/03 09:38:49;;;;;;;13.82;2.00;;;4.80;77.70;;;;;;4134083;28;20451;-84
2023/03/03 09:41:13;;;;;;;22.20;2.53;;;4.80;77.20;;;;;;4124191;28;20126;-84
2023/03/03 09:43:58;;;;;;;14.38;2.00;;;4.90;77.10;;;;;;4123367;28;20037;-84
2023/03/03 09:46:32;;;;;;;;;;;4.90;76.90;;;;;;4138912;28;20106;-84
2023/03/03 09:49:03;;;;;;;15.35;1.83;;;5.00;77.30;;;;;;4131915;28;19928;-84
2023/03/03 09:51:56;;;;;;;10.25;2.22;;;5.10;76.50;;;;;;4118460;28;20145;-85
2023/03/03 09:54:21;;;;;;;22.38;2.88;;;5.00;76.30;;;;;;4137986;28;20113;-84
2023/03/03 09:56:50;;;;;;;19.98;2.70;;;5.10;75.70;;;;;;4140591;28;20040;-84
2023/03/03 09:59:37;;;;;;;16.25;3.40;;;5.10;75.90;;;;;;4140840;28;20109;-86
2023/03/03 10:02:22;;;;;;;18.75;4.85;;;5.20;75.50;;;;;;4136367;28;20045;-85
2023/03/03 10:04:41;;;;;;;23.30;2.88;;;5.20;75.10;;;;;;4124231;28;20254;-84
2023/03/03 10:07:19;;;;;;;15.20;3.17;;;5.30;74.50;;;;;;4148182;28;20045;-84
2023/03/03 10:09:57;;;;;;;19.58;3.85;;;5.30;74.10;;;;;;4132395;28;20046;-84
2023/03/03 10:12:27;;;;;;;21.00;4.13;;;5.40;74.40;;;;;;4133782;28;20041;-83
2023/03/03 10:15:01;;;;;;;13.27;3.05;;;5.40;74.20;;;;;;4144076;28;20033;-83
2023/03/03 10:17:34;;;;;;;;;;;5.50;74.40;;;;;;4128907;28;20305;-84
2023/03/03 10:20:11;;;;;;;16.88;2.33;;;5.50;74.90;;;;;;4143192;28;19985;-83
2023/03/03 10:22:49;;;;;;;12.10;2.30;;;5.60;74.40;;;;;;4140748;28;20121;-83
2023/03/03 10:25:23;;;;;;;13.23;3.03;;;5.70;74.20;;;;;;4130159;28;20622;-84
2023/03/03 10:27:45;;;;;;;;;;;5.70;73.30;;;;;;4130137;28;20063;-85
2023/03/03 10:30:43;;;;;;;15.38;2.42;;;5.80;73.60;;;;;;4132127;28;20037;-84
2023/03/03 10:33:11;;;;;;;14.20;2.95;;;5.80;73.50;;;;;;4142746;28;20060;-84
2023/03/03 10:35:53;;;;;;;17.92;2.80;;;5.90;73.50;;;;;;4128931;28;20052;-83
2023/03/03 10:38:26;;;;;;;16.20;2.10;;;6.00;73.40;;;;;;4143466;28;20060;-83
2023/03/03 10:41:03;;;;;;;16.85;2.42;;;6.10;73.30;;;;;;4141158;28;20036;-84
2023/03/03 10:43:58;;;;;;;11.75;2.38;;;6.20;73.00;;;;;;4129114;28;20045;-83
2023/03/03 10:46:45;;;;;;;15.75;5.00;;;6.20;72.40;;;;;;4123618;28;20040;-85
2023/03/03 10:49:31;;;;;;;17.02;4.10;;;6.30;71.70;;;;;;4132542;28;20302;-83
2023/03/03 10:52:18;;;;;;;16.42;2.67;;;6.40;71.90;;;;;;4143948;28;20117;-84
2023/03/03 10:54:40;;;;;;;21.00;2.70;;;6.50;71.90;;;;;;4136666;28;20060;-83
2023/03/03 10:57:07;;;;;;;15.00;2.25;;;6.60;70.90;;;;;;4138089;28;20049;-83
2023/03/03 10:59:56;;;;;;;17.35;2.20;;;6.60;70.30;;;;;;4134396;28;20125;-82
2023/03/03 11:02:29;;;;;;;14.75;3.10;;;6.60;70.40;;;;;;4142131;28;20093;-82
2023/03/03 11:04:57;;;;;;;19.35;4.50;;;6.70;69.70;;;;;;4141008;28;20060;-83
2023/03/03 11:07:20;;;;;;;13.38;4.38;;;6.70;69.20;;;;;;4137907;28;20045;-83
2023/03/03 11:09:54;;;;;;;15.60;2.55;;;6.80;69.50;;;;;;4143622;28;20097;-84
2023/03/03 11:12:32;;;;;;;15.00;2.50;;;6.80;69.20;;;;;;4131260;28;20040;-83
2023/03/03 11:15:10;;;;;;;15.70;2.63;;;6.80;69.20;;;;;;4141588;28;20064;-85
2023/03/03 11:17:56;;;;;;;12.55;2.00;;;6.90;69.10;;;;;;4139670;28;20128;-85
2023/03/03 11:20:43;;;;;;;10.95;1.90;;;6.90;68.00;;;;;;4141489;28;20474;-85
2023/03/03 11:23:21;;;;;;;12.35;2.30;;;6.90;67.80;;;;;;4138630;28;20598;-82
2023/03/03 11:26:06;;;;;;;19.20;3.22;;;6.90;67.30;;;;;;4142079;28;20085;-83
2023/03/03 11:28:41;;;;;;;;;;;6.90;67.40;;;;;;4142544;28;20074;-83
2023/03/03 11:31:34;;;;;;;19.65;2.78;;;6.90;67.20;;;;;;4129802;28;19964;-83
2023/03/03 11:34:17;;;;;;;21.17;2.83;;;7.00;67.10;;;;;;4142048;28;20320;-84
2023/03/03 11:36:49;;;;;;;13.25;2.25;;;7.00;67.70;;;;;;4141326;28;21335;-83
2023/03/03 11:39:27;;;;;;;17.02;2.22;;;7.00;67.90;;;;;;4141395;28;20116;-83
2023/03/03 11:42:20;;;;;;;16.88;2.50;;;7.00;68.00;;;;;;4148306;28;20084;-83
2023/03/03 11:44:46;;;;;;;27.65;2.95;;;7.10;68.10;;;;;;4147814;28;20041;-84
2023/03/03 11:47:25;;;;;;;22.77;2.88;;;7.20;68.10;;;;;;4150546;28;20108;-84
2023/03/03 11:50:07;;;;;;;17.90;3.00;;;7.30;67.90;;;;;;4145476;28;20109;-83
2023/03/03 11:52:43;;;;;;;20.45;2.75;;;7.40;67.60;;;;;;4133573;28;20053;-84
2023/03/03 11:55:19;;;;;;;20.05;2.85;;;7.40;66.20;;;;;;4149168;28;20077;-83
2023/03/03 11:57:26;;;;;;;;;;;7.40;65.90;;;;;;4146910;28;20173;-84
2023/03/03 12:00:09;;;;;;;21.60;2.78;;;7.50;65.90;;;;;;4151833;28;19920;-84
2023/03/03 12:02:57;;;;;;;19.73;2.95;;;7.50;65.70;;;;;;4134054;28;20112;-83
2023/03/03 12:05:40;;;;;;;21.75;2.53;;;7.50;65.80;;;;;;4143762;28;20049;-83
2023/03/03 12:08:27;;;;;;;19.65;3.05;;;7.50;64.90;;;;;;4147097;28;20044;-83
2023/03/03 12:10:52;;;;;;;22.58;3.20;;;7.50;64.90;;;;;;4151685;28;20025;-84
2023/03/03 12:13:18;;;;;;;25.80;3.13;;;7.50;64.40;;;;;;4149111;28;20591;-83
2023/03/03 12:16:03;;;;;;;14.95;2.38;;;7.50;64.00;;;;;;4147798;28;20113;-83
2023/03/03 12:18:38;;;;;;;24.15;3.22;;;7.50;64.00;;;;;;4136543;28;20038;-83
2023/03/03 12:21:45;;;;;;;19.80;2.83;;;7.50;64.20;;;;;;4132973;28;20081;-83
2023/03/03 12:24:11;;;;;;;20.35;2.72;;;7.50;64.40;;;;;;4148707;28;20045;-83
2023/03/03 12:26:15;;;;;;;29.17;2.92;;;7.50;64.90;;;;;;4137200;28;20035;-84
2023/03/03 12:28:33;;;;;;;26.05;3.50;;;7.50;65.20;;;;;;4122199;28;20114;-83
2023/03/03 12:30:52;;;;;;;25.08;3.40;;;7.50;65.10;;;;;;4150106;28;20027;-83
2023/03/03 12:33:19;;;;;;;27.90;3.15;;;7.50;64.80;;;;;;4147712;28;20029;-83
2023/03/03 12:35:38;;;;;;;28.10;2.70;;;7.50;65.10;;;;;;4113238;28;20117;-84
2023/03/03 12:37:52;;;;;;;27.75;3.25;;;7.60;64.70;;;;;;4133426;28;20034;-83
2023/03/03 12:40:31;;;;;;;17.08;2.83;;;7.60;64.70;;;;;;4124942;28;20113;-84